Tobaccoville, North Carolina
Current Conditions -  °F | °C
As of 6:16 AM on Friday 31 Oct 2014 (Local Time) from KINT Reporting Station
Broken Clouds Broken Clouds  
Wind Chill: 39°   Ceiling: 2300
Heat Index: 43°   Visibility: 10mi
Dew Point: 34°   Wind: 6mph
Humidity: 71%   Direction: 10°N
Pressure: 29.98"   Gusts: NA
Location:  36.24°N, 80.37°W
Report Text: KINT 311016Z AUTO 01005KT 10SM BKN023 06/01 A2998 RMK AO2 T00610011
Loading
Personal Weather Stations






























Interactive Weather Map
Tropical Storm Tracking
New forecast layout! Learn more

10-Day Weather Forecast

Advertisements
Track Severe Weather on mobile